createdAt,value
2023-05-04T00:00:22.073Z,89
2023-05-04T00:02:36.367Z,89
2023-05-04T00:03:42.967Z,89
2023-05-04T00:04:49.999Z,89
2023-05-04T00:05:57.074Z,89
2023-05-04T00:07:04.168Z,89
2023-05-04T00:08:11.786Z,89
2023-05-04T00:09:17.944Z,89
2023-05-04T00:10:25.009Z,89
2023-05-04T00:11:32.121Z,89
2023-05-04T00:12:39.249Z,89
2023-05-04T00:13:46.307Z,89
2023-05-04T00:14:52.860Z,89
2023-05-04T00:16:00.037Z,89
2023-05-04T00:17:07.142Z,89
2023-05-04T00:18:14.170Z,89
2023-05-04T00:19:20.765Z,89
2023-05-04T00:20:27.888Z,89
2023-05-04T00:21:35.031Z,89
2023-05-04T00:22:42.129Z,89
2023-05-04T00:23:49.214Z,89
2023-05-04T00:24:55.802Z,89
2023-05-04T00:26:02.913Z,89
2023-05-04T00:27:10.034Z,89
2023-05-04T00:28:17.169Z,89
2023-05-04T00:29:24.166Z,89
2023-05-04T00:30:30.761Z,89
2023-05-04T00:31:37.993Z,90
2023-05-04T00:32:45.147Z,89
2023-05-04T00:33:52.103Z,90
2023-05-04T00:34:59.239Z,90
2023-05-04T00:36:06.347Z,90
2023-05-04T00:37:12.977Z,90
2023-05-04T00:38:20.598Z,90
2023-05-04T00:39:27.147Z,90
2023-05-04T00:40:34.206Z,90
2023-05-04T00:41:40.783Z,90
2023-05-04T00:42:47.903Z,90
2023-05-04T00:43:55.065Z,90
2023-05-04T00:45:02.114Z,90
2023-05-04T00:46:09.257Z,90
2023-05-04T00:47:15.975Z,90
2023-05-04T00:48:22.882Z,90
2023-05-04T00:49:30.064Z,90
2023-05-04T00:50:37.149Z,90
2023-05-04T00:51:44.192Z,90
2023-05-04T00:52:50.844Z,90
2023-05-04T00:53:57.941Z,90
2023-05-04T00:55:05.051Z,90
2023-05-04T00:56:12.132Z,90
2023-05-04T00:57:19.270Z,90
2023-05-04T00:58:25.875Z,90
2023-05-04T00:59:32.951Z,90
2023-05-04T01:00:40.139Z,90
2023-05-04T01:01:47.157Z,90
2023-05-04T01:02:54.321Z,90
2023-05-04T01:04:00.851Z,90
2023-05-04T01:05:07.967Z,90
2023-05-04T01:06:15.111Z,90
2023-05-04T01:07:22.127Z,90
2023-05-04T01:08:29.285Z,90
2023-05-04T01:09:35.917Z,90
2023-05-04T01:10:42.936Z,90
2023-05-04T01:11:50.596Z,90
2023-05-04T01:12:57.242Z,90
2023-05-04T01:14:04.292Z,90
2023-05-04T01:15:10.834Z,90
2023-05-04T01:16:18.067Z,90
2023-05-04T01:17:25.178Z,90
2023-05-04T01:18:32.134Z,90
2023-05-04T01:19:39.317Z,90
2023-05-04T01:20:45.911Z,90
2023-05-04T01:21:52.985Z,90
2023-05-04T01:23:00.149Z,90
2023-05-04T01:24:07.216Z,90
2023-05-04T01:25:14.247Z,90
2023-05-04T01:26:20.861Z,90
2023-05-04T01:27:27.982Z,90
2023-05-04T01:28:35.148Z,90
2023-05-04T01:29:42.155Z,90
2023-05-04T01:30:48.844Z,90
2023-05-04T01:31:55.878Z,90
2023-05-04T01:33:03.022Z,90
2023-05-04T01:34:10.131Z,90
2023-05-04T01:35:17.214Z,90
2023-05-04T01:36:23.801Z,90
2023-05-04T01:37:30.903Z,90
2023-05-04T01:38:38.017Z,90
2023-05-04T01:39:45.108Z,90
2023-05-04T01:40:52.193Z,90
2023-05-04T01:41:58.798Z,90
2023-05-04T01:43:05.882Z,90
2023-05-04T01:44:13.045Z,90
2023-05-04T01:45:20.075Z,90
2023-05-04T01:46:27.221Z,90
2023-05-04T01:48:40.890Z,90
2023-05-04T01:49:48.020Z,90
2023-05-04T01:50:55.126Z,90
2023-05-04T01:52:02.223Z,90
2023-05-04T01:53:08.836Z,90
2023-05-04T01:54:15.941Z,90
2023-05-04T01:55:23.013Z,90
2023-05-04T01:56:30.246Z,90
2023-05-04T01:57:37.254Z,90
2023-05-04T01:58:43.816Z,90
2023-05-04T01:59:50.907Z,90
2023-05-04T02:00:58.014Z,90
2023-05-04T02:02:05.204Z,90
2023-05-04T02:03:12.292Z,90
2023-05-04T02:04:18.812Z,90
2023-05-04T02:05:25.912Z,90
2023-05-04T02:06:33.546Z,90
2023-05-04T02:07:40.148Z,90
2023-05-04T02:08:47.249Z,90
2023-05-04T02:09:53.774Z,90
2023-05-04T02:11:00.896Z,90
2023-05-04T02:12:09.648Z,90
2023-05-04T02:13:15.224Z,90
2023-05-04T02:14:23.385Z,90
2023-05-04T02:14:23.415Z,90
2023-05-04T02:15:28.856Z,90
2023-05-04T02:16:36.004Z,89
2023-05-04T02:17:43.070Z,90
2023-05-04T02:18:50.178Z,90
2023-05-04T02:19:57.278Z,89
2023-05-04T02:21:03.819Z,89
2023-05-04T02:22:10.917Z,89
2023-05-04T02:23:18.094Z,90
2023-05-04T02:24:25.188Z,90
2023-05-04T02:25:32.260Z,90
2023-05-04T02:26:38.893Z,90
2023-05-04T02:27:45.956Z,90
2023-05-04T02:30:00.238Z,89
2023-05-04T02:31:07.351Z,90
2023-05-04T02:32:13.828Z,89
2023-05-04T02:32:13.886Z,89
2023-05-04T02:33:21.012Z,90
2023-05-04T02:34:28.062Z,89
2023-05-04T02:35:35.167Z,89
2023-05-04T02:36:42.303Z,89
2023-05-04T02:37:48.906Z,89
2023-05-04T02:38:56.001Z,89
2023-05-04T02:40:03.471Z,89
2023-05-04T02:41:10.206Z,89
2023-05-04T02:41:10.243Z,89
2023-05-04T02:42:17.276Z,89
2023-05-04T02:43:23.840Z,89
2023-05-04T02:44:31.064Z,89
2023-05-04T02:45:38.220Z,89
2023-05-04T02:46:45.188Z,89
2023-05-04T02:47:52.366Z,89
2023-05-04T02:48:58.939Z,89
2023-05-04T02:50:06.250Z,89
2023-05-04T02:50:06.294Z,89
2023-05-04T02:51:13.074Z,89
2023-05-04T02:52:20.238Z,89
2023-05-04T02:53:26.772Z,89
2023-05-04T02:54:33.887Z,89
2023-05-04T02:54:33.911Z,89
2023-05-04T02:55:40.988Z,89
2023-05-04T02:56:48.154Z,89
2023-05-04T02:59:02.327Z,89
2023-05-04T03:01:16.064Z,89
2023-05-04T03:02:23.149Z,89
2023-05-04T03:03:30.221Z,89
2023-05-04T03:04:37.025Z,89
2023-05-04T03:05:43.913Z,89
2023-05-04T03:06:50.963Z,89
2023-05-04T03:07:58.153Z,89
2023-05-04T03:07:58.189Z,89
2023-05-04T03:09:05.317Z,89
2023-05-04T03:11:18.949Z,89
2023-05-04T03:12:26.009Z,89
2023-05-04T03:13:33.133Z,89
2023-05-04T03:14:40.247Z,89
2023-05-04T03:15:46.846Z,89
2023-05-04T03:16:53.963Z,89
2023-05-04T03:18:01.083Z,89
2023-05-04T03:19:08.163Z,89
2023-05-04T03:20:15.242Z,89
2023-05-04T03:21:21.894Z,89
2023-05-04T03:22:28.988Z,89
2023-05-04T03:23:36.032Z,89
2023-05-04T03:24:43.149Z,89
2023-05-04T03:25:50.270Z,89
2023-05-04T03:26:56.859Z,89
2023-05-04T03:28:03.915Z,89
2023-05-04T03:29:11.017Z,89
2023-05-04T03:30:18.168Z,89
2023-05-04T03:31:25.354Z,89
2023-05-04T03:32:31.871Z,89
2023-05-04T03:33:38.982Z,89
2023-05-04T03:34:46.080Z,89
2023-05-04T03:35:53.120Z,89
2023-05-04T03:37:00.257Z,89
2023-05-04T03:38:06.859Z,89
2023-05-04T03:39:13.956Z,89
2023-05-04T03:40:21.039Z,88
2023-05-04T03:41:28.188Z,88
2023-05-04T03:42:35.283Z,89
2023-05-04T03:43:41.846Z,89
2023-05-04T03:44:48.997Z,89
2023-05-04T03:45:56.134Z,89
2023-05-04T03:47:03.143Z,89
2023-05-04T03:48:10.313Z,89
2023-05-04T03:49:16.887Z,89
2023-05-04T03:50:23.942Z,88
2023-05-04T03:52:38.285Z,88
2023-05-04T03:52:38.287Z,88
2023-05-04T03:53:45.329Z,88
2023-05-04T03:54:51.921Z,88
2023-05-04T03:55:59.004Z,88
2023-05-04T03:57:06.131Z,88
2023-05-04T03:58:13.152Z,88
2023-05-04T03:59:20.282Z,88
2023-05-04T04:00:26.880Z,88
2023-05-04T04:01:33.991Z,88
2023-05-04T04:01:33.994Z,88
2023-05-04T04:02:41.126Z,88
2023-05-04T04:03:48.423Z,88
2023-05-04T04:04:54.817Z,88
2023-05-04T04:06:01.863Z,88
2023-05-04T04:07:09.036Z,88
2023-05-04T04:08:16.137Z,88
2023-05-04T04:09:23.228Z,88
2023-05-04T04:10:30.319Z,88
2023-05-04T04:11:36.901Z,88
2023-05-04T04:12:44.030Z,88
2023-05-04T04:13:51.121Z,88
2023-05-04T04:14:58.210Z,88
2023-05-04T04:16:04.893Z,88
2023-05-04T04:17:11.849Z,88
2023-05-04T04:18:19.023Z,88
2023-05-04T04:19:26.163Z,88
2023-05-04T04:20:33.242Z,88
2023-05-04T04:21:39.796Z,88
2023-05-04T04:22:46.921Z,88
2023-05-04T04:23:54.028Z,88
2023-05-04T04:25:01.083Z,88
2023-05-04T04:27:14.824Z,88
2023-05-04T04:28:21.908Z,88
2023-05-04T04:28:21.924Z,88
2023-05-04T04:29:29.051Z,88
2023-05-04T04:30:36.130Z,88
2023-05-04T04:31:43.321Z,88
2023-05-04T04:33:56.926Z,88
2023-05-04T04:35:04.020Z,88
2023-05-04T04:36:11.137Z,88
2023-05-04T04:37:18.255Z,88
2023-05-04T04:38:24.890Z,88
2023-05-04T04:39:31.951Z,88
2023-05-04T04:40:39.051Z,88
2023-05-04T04:41:46.153Z,88
2023-05-04T04:42:53.196Z,88
2023-05-04T04:43:59.925Z,88
2023-05-04T04:45:06.935Z,88
2023-05-04T04:46:14.041Z,88
2023-05-04T04:47:21.208Z,88
2023-05-04T04:48:28.245Z,88
2023-05-04T04:49:34.910Z,88
2023-05-04T04:50:41.902Z,88
2023-05-04T04:51:49.071Z,88
2023-05-04T04:52:56.150Z,88
2023-05-04T04:54:03.257Z,88
2023-05-04T04:55:09.868Z,88
2023-05-04T04:56:16.931Z,88
2023-05-04T04:57:24.133Z,88
2023-05-04T04:58:31.179Z,88
2023-05-04T04:59:38.321Z,88
2023-05-04T04:59:38.322Z,88
2023-05-04T05:00:44.831Z,88
2023-05-04T05:01:51.978Z,88
2023-05-04T05:02:58.626Z,88
2023-05-04T05:04:06.198Z,88
2023-05-04T05:05:13.390Z,88
2023-05-04T05:06:19.862Z,88
2023-05-04T05:07:26.979Z,88
2023-05-04T05:08:33.523Z,88
2023-05-04T05:08:34.045Z,88
2023-05-04T05:09:41.190Z,88
2023-05-04T05:10:48.323Z,88
2023-05-04T05:11:54.853Z,88
2023-05-04T05:13:01.501Z,88
2023-05-04T05:13:02.008Z,88
2023-05-04T05:15:16.218Z,88
2023-05-04T05:16:23.278Z,88
2023-05-04T05:17:29.943Z,88
2023-05-04T05:18:36.993Z,88
2023-05-04T05:19:44.089Z,88
2023-05-04T05:20:51.152Z,88
2023-05-04T05:21:58.306Z,88
2023-05-04T05:23:04.970Z,88
2023-05-04T05:24:12.018Z,88
2023-05-04T05:25:19.105Z,88
2023-05-04T05:27:32.788Z,88
2023-05-04T05:28:39.945Z,88
2023-05-04T05:29:47.070Z,88
2023-05-04T05:30:54.196Z,88
2023-05-04T05:32:01.217Z,88
2023-05-04T05:33:07.871Z,88
2023-05-04T05:34:14.916Z,88
2023-05-04T05:35:22.042Z,89
2023-05-04T05:36:29.104Z,89
2023-05-04T05:37:36.215Z,89
2023-05-04T05:38:42.795Z,88
2023-05-04T05:39:49.941Z,89
2023-05-04T05:40:57.086Z,89
2023-05-04T05:42:04.087Z,89
2023-05-04T05:43:11.220Z,89
2023-05-04T05:44:17.836Z,89
2023-05-04T05:45:24.933Z,89
2023-05-04T05:46:32.134Z,89
2023-05-04T05:47:39.196Z,89
2023-05-04T05:48:46.240Z,89
2023-05-04T05:49:52.781Z,89
2023-05-04T05:50:59.952Z,89
2023-05-04T05:52:09.783Z,89
2023-05-04T05:53:14.104Z,89
2023-05-04T05:54:21.193Z,89
2023-05-04T05:56:35.027Z,89
2023-05-04T05:57:42.087Z,89
2023-05-04T05:58:49.135Z,89
2023-05-04T05:59:56.241Z,89
2023-05-04T06:01:02.842Z,89
2023-05-04T06:02:09.948Z,89
2023-05-04T06:03:17.190Z,89
2023-05-04T06:04:24.178Z,89
2023-05-04T06:05:31.235Z,89
2023-05-04T06:06:37.822Z,89
2023-05-04T06:07:44.960Z,89
2023-05-04T06:08:52.057Z,89
2023-05-04T06:09:59.140Z,89
2023-05-04T06:11:06.393Z,89
2023-05-04T06:12:12.802Z,89
2023-05-04T06:13:20.041Z,89
2023-05-04T06:14:27.066Z,89
2023-05-04T06:15:34.116Z,89
2023-05-04T06:16:41.379Z,89
2023-05-04T06:17:47.920Z,89
2023-05-04T06:18:55.010Z,89
2023-05-04T06:20:02.069Z,89
2023-05-04T06:21:09.212Z,89
2023-05-04T06:22:16.283Z,89
2023-05-04T06:23:22.884Z,89
2023-05-04T06:24:30.544Z,89
2023-05-04T06:25:41.003Z,89
2023-05-04T06:26:44.181Z,89
2023-05-04T06:27:51.271Z,89
2023-05-04T06:28:57.890Z,88
2023-05-04T06:30:05.922Z,89
2023-05-04T06:31:12.105Z,88
2023-05-04T06:32:19.173Z,89
2023-05-04T06:33:26.268Z,89
2023-05-04T06:34:32.904Z,88
2023-05-04T06:35:39.995Z,89
2023-05-04T06:37:54.224Z,89
2023-05-04T06:39:01.377Z,89
2023-05-04T06:40:07.982Z,89
2023-05-04T06:41:15.016Z,89
2023-05-04T06:42:22.083Z,89
2023-05-04T06:43:29.187Z,89
2023-05-04T06:44:35.871Z,89
2023-05-04T06:45:42.936Z,89
2023-05-04T06:46:49.997Z,89
2023-05-04T06:47:57.133Z,89
2023-05-04T06:49:04.230Z,89
2023-05-04T06:50:10.800Z,89
2023-05-04T06:51:17.928Z,89
2023-05-04T06:52:25.021Z,89
2023-05-04T06:53:32.093Z,89
2023-05-04T06:54:39.272Z,89
2023-05-04T06:55:45.824Z,89
2023-05-04T06:56:52.860Z,89
2023-05-04T06:58:00.070Z,89
2023-05-04T06:59:07.146Z,89
2023-05-04T07:00:14.183Z,89
2023-05-04T07:01:20.835Z,89
2023-05-04T07:02:28.699Z,89
2023-05-04T07:03:35.112Z,89
2023-05-04T07:04:42.424Z,89
2023-05-04T07:05:49.260Z,89
2023-05-04T07:06:55.842Z,89
2023-05-04T07:08:02.906Z,89
2023-05-04T07:09:10.215Z,89
2023-05-04T07:10:17.191Z,89
2023-05-04T07:11:24.225Z,89
2023-05-04T07:12:30.804Z,89
2023-05-04T07:13:37.985Z,88
2023-05-04T07:14:45.038Z,88
2023-05-04T07:15:52.197Z,88
2023-05-04T07:16:59.234Z,88
2023-05-04T07:19:12.923Z,89
2023-05-04T07:20:20.046Z,89
2023-05-04T07:21:28.921Z,89
2023-05-04T07:22:34.207Z,89
2023-05-04T07:23:40.846Z,89
2023-05-04T07:24:47.962Z,89
2023-05-04T07:25:55.089Z,89
2023-05-04T07:27:02.172Z,89
2023-05-04T07:28:09.268Z,89
2023-05-04T07:29:16.000Z,89
2023-05-04T07:30:22.927Z,89
2023-05-04T07:31:30.772Z,89
2023-05-04T07:32:37.262Z,89
2023-05-04T07:33:44.252Z,88
2023-05-04T07:34:50.841Z,88
2023-05-04T07:35:57.980Z,88
2023-05-04T07:37:05.077Z,88
2023-05-04T07:38:12.263Z,88
2023-05-04T07:39:19.312Z,87
2023-05-04T07:40:25.950Z,87
2023-05-04T07:41:32.943Z,87
2023-05-04T07:42:40.098Z,87
2023-05-04T07:43:47.228Z,86
2023-05-04T07:44:54.266Z,86
2023-05-04T07:46:00.920Z,86
2023-05-04T07:47:07.996Z,86
2023-05-04T07:48:15.891Z,86
2023-05-04T07:49:22.188Z,86
2023-05-04T07:50:29.340Z,85
2023-05-04T07:51:35.896Z,85
2023-05-04T07:52:42.941Z,85
2023-05-04T07:53:50.075Z,85
2023-05-04T07:54:57.238Z,85
2023-05-04T07:56:03.787Z,85
2023-05-04T07:57:10.844Z,85
2023-05-04T07:58:17.988Z,84
2023-05-04T08:00:32.239Z,84
2023-05-04T08:01:38.846Z,84
2023-05-04T08:02:46.068Z,84
2023-05-04T08:03:52.982Z,84
2023-05-04T08:05:00.182Z,84
2023-05-04T08:06:07.202Z,84
2023-05-04T08:07:16.610Z,83
2023-05-04T08:08:21.799Z,83
2023-05-04T08:09:28.248Z,83
2023-05-04T08:10:36.855Z,83
2023-05-04T08:11:42.318Z,83
2023-05-04T08:12:48.948Z,83
2023-05-04T08:13:55.897Z,83
2023-05-04T08:15:03.258Z,83
2023-05-04T08:16:10.216Z,83
2023-05-04T08:17:17.280Z,82
2023-05-04T08:19:30.914Z,82
2023-05-04T08:20:38.062Z,82
2023-05-04T08:21:45.158Z,82
2023-05-04T08:22:52.307Z,82
2023-05-04T08:23:58.822Z,82
2023-05-04T08:25:06.913Z,82
2023-05-04T08:26:13.015Z,82
2023-05-04T08:27:21.206Z,82
2023-05-04T08:28:27.258Z,81
2023-05-04T08:29:34.337Z,82
2023-05-04T08:30:40.909Z,81
2023-05-04T08:31:48.220Z,81
2023-05-04T08:32:55.248Z,81
2023-05-04T08:34:02.232Z,81
2023-05-04T08:35:08.926Z,81
2023-05-04T08:36:15.983Z,81
2023-05-04T08:37:23.622Z,81
2023-05-04T08:38:30.138Z,81
2023-05-04T08:39:38.400Z,81
2023-05-04T08:41:50.945Z,81
2023-05-04T08:42:58.077Z,80
2023-05-04T08:44:05.155Z,80
2023-05-04T08:45:11.780Z,80
2023-05-04T08:46:18.945Z,80
2023-05-04T08:47:25.972Z,80
2023-05-04T08:48:33.047Z,80
2023-05-04T08:49:40.247Z,80
2023-05-04T08:50:46.778Z,80
2023-05-04T08:51:53.897Z,79
2023-05-04T08:53:00.956Z,80
2023-05-04T08:54:08.096Z,80
2023-05-04T08:55:15.572Z,80
2023-05-04T08:56:21.903Z,79
2023-05-04T08:57:29.227Z,80
2023-05-04T08:58:36.322Z,79
2023-05-04T08:59:43.175Z,79
2023-05-04T09:00:50.426Z,79
2023-05-04T09:01:57.514Z,79
2023-05-04T09:03:04.087Z,79
2023-05-04T09:04:11.099Z,79
2023-05-04T09:05:18.200Z,79
2023-05-04T09:06:25.268Z,79
2023-05-04T09:07:31.859Z,79
2023-05-04T09:08:38.992Z,79
2023-05-04T09:09:46.081Z,78
2023-05-04T09:10:53.081Z,78
2023-05-04T09:12:00.256Z,78
2023-05-04T09:13:06.844Z,78
2023-05-04T09:14:13.854Z,78
2023-05-04T09:15:21.065Z,78
2023-05-04T09:16:28.180Z,78
2023-05-04T09:17:37.926Z,78
2023-05-04T09:18:42.303Z,78
2023-05-04T09:19:48.888Z,78
2023-05-04T09:20:56.031Z,78
2023-05-04T09:23:10.303Z,77
2023-05-04T09:24:16.836Z,77
2023-05-04T09:25:23.950Z,77
2023-05-04T09:26:30.991Z,77
2023-05-04T09:28:45.261Z,77
2023-05-04T09:29:52.107Z,77
2023-05-04T09:31:00.789Z,76
2023-05-04T09:32:06.092Z,76
2023-05-04T09:33:13.200Z,76
2023-05-04T09:34:20.323Z,76
2023-05-04T09:35:33.157Z,76
2023-05-04T09:36:34.177Z,76
2023-05-04T09:37:41.076Z,76
2023-05-04T09:38:48.899Z,75
2023-05-04T09:39:54.748Z,75
2023-05-04T09:41:02.347Z,74
2023-05-04T09:42:09.748Z,74
2023-05-04T09:43:16.035Z,74
2023-05-04T09:44:23.088Z,73
2023-05-04T09:45:30.285Z,73
2023-05-04T09:46:36.899Z,72
2023-05-04T09:47:44.170Z,72
2023-05-04T09:48:51.019Z,72
2023-05-04T09:50:00.653Z,72
2023-05-04T09:51:05.345Z,72
2023-05-04T09:52:11.869Z,72
2023-05-04T09:53:18.977Z,72
2023-05-04T09:54:26.034Z,72
2023-05-04T09:55:33.184Z,72
2023-05-04T09:56:40.268Z,72
2023-05-04T09:57:46.915Z,72
2023-05-04T09:58:53.908Z,72
2023-05-04T10:00:04.434Z,72
2023-05-04T10:01:11.542Z,72
2023-05-04T10:02:22.440Z,72
2023-05-04T10:04:28.979Z,71
2023-05-04T10:05:38.496Z,71
2023-05-04T10:06:43.131Z,71
2023-05-04T10:07:51.206Z,71
2023-05-04T10:08:56.867Z,72
2023-05-04T10:10:04.010Z,72
2023-05-04T10:11:11.078Z,72
2023-05-04T10:12:18.516Z,72
2023-05-04T10:13:27.905Z,72
2023-05-04T10:14:31.832Z,72
2023-05-04T10:15:39.120Z,72
2023-05-04T10:16:46.176Z,71
2023-05-04T10:17:53.194Z,72
2023-05-04T10:18:59.748Z,71
2023-05-04T10:20:06.832Z,71
2023-05-04T10:21:13.995Z,71
2023-05-04T10:22:21.085Z,71
2023-05-04T10:23:28.170Z,71
2023-05-04T10:24:34.762Z,71
2023-05-04T10:26:48.982Z,70
2023-05-04T10:27:56.074Z,70
2023-05-04T10:29:03.158Z,71
2023-05-04T10:30:09.859Z,70
2023-05-04T10:31:20.785Z,70
2023-05-04T10:32:24.059Z,70
2023-05-04T10:33:31.092Z,70
2023-05-04T10:34:38.208Z,70
2023-05-04T10:35:44.788Z,69
2023-05-04T10:36:51.833Z,69
2023-05-04T10:37:59.055Z,68
2023-05-04T10:39:06.086Z,68
2023-05-04T10:40:13.209Z,68
2023-05-04T10:41:20.357Z,68
2023-05-04T10:42:27.193Z,68
2023-05-04T10:43:33.960Z,67
2023-05-04T10:45:48.308Z,67
2023-05-04T10:46:55.644Z,67
2023-05-04T10:48:01.906Z,67
2023-05-04T10:49:09.073Z,67
2023-05-04T10:50:16.192Z,67
2023-05-04T10:51:24.311Z,67
2023-05-04T10:52:29.831Z,68
2023-05-04T10:53:37.567Z,67
2023-05-04T10:54:43.983Z,67
2023-05-04T10:56:58.258Z,67
2023-05-04T10:58:04.826Z,67
2023-05-04T10:59:22.037Z,67
2023-05-04T11:00:19.234Z,67
2023-05-04T11:01:26.676Z,67
2023-05-04T11:02:33.479Z,67
2023-05-04T11:03:39.946Z,67
2023-05-04T11:04:46.907Z,67
2023-05-04T11:06:01.167Z,67
2023-05-04T11:07:01.105Z,67
2023-05-04T11:08:08.270Z,67
2023-05-04T11:09:15.093Z,66
2023-05-04T11:10:21.976Z,66
2023-05-04T11:11:29.141Z,66
2023-05-04T11:12:36.264Z,67
2023-05-04T11:13:43.242Z,66
2023-05-04T11:14:49.881Z,66
2023-05-04T11:15:56.930Z,66
2023-05-04T11:17:07.348Z,66
2023-05-04T11:18:11.197Z,66
2023-05-04T11:19:17.844Z,66
2023-05-04T11:20:24.847Z,66
2023-05-04T11:21:31.937Z,66
2023-05-04T11:22:39.042Z,66
2023-05-04T11:23:46.186Z,66
2023-05-04T11:24:54.891Z,66
2023-05-04T11:25:59.909Z,66
2023-05-04T11:27:07.019Z,66
2023-05-04T11:28:14.328Z,66
2023-05-04T11:30:27.792Z,66
2023-05-04T11:31:34.901Z,66
2023-05-04T11:32:42.173Z,65
2023-05-04T11:33:49.067Z,66
2023-05-04T11:34:56.227Z,65
2023-05-04T11:36:02.707Z,65
2023-05-04T11:36:02.783Z,65
2023-05-04T11:37:09.909Z,65
2023-05-04T11:38:16.968Z,65
2023-05-04T11:39:24.039Z,65
2023-05-04T11:40:31.234Z,65
2023-05-04T11:41:37.748Z,65
2023-05-04T11:42:44.888Z,65
2023-05-04T11:43:51.975Z,65
2023-05-04T11:44:59.132Z,65
2023-05-04T11:44:59.146Z,65
2023-05-04T11:46:06.261Z,65
2023-05-04T11:47:12.755Z,65
2023-05-04T11:48:20.370Z,65
2023-05-04T11:49:26.967Z,64
2023-05-04T11:50:34.098Z,64
2023-05-04T11:51:41.257Z,64
2023-05-04T11:52:47.828Z,64
2023-05-04T11:53:54.321Z,64
2023-05-04T11:53:54.901Z,64
2023-05-04T11:55:01.998Z,64
2023-05-04T11:56:09.215Z,64
2023-05-04T11:57:16.207Z,64
2023-05-04T11:58:22.825Z,64
2023-05-04T11:58:22.900Z,64
2023-05-04T11:59:29.895Z,64
2023-05-04T12:00:37.008Z,64
2023-05-04T12:01:44.278Z,64
2023-05-04T12:02:51.352Z,64
2023-05-04T12:03:57.907Z,64
2023-05-04T12:05:05.190Z,64
2023-05-04T12:06:11.983Z,64
2023-05-04T12:07:19.207Z,63
2023-05-04T12:08:25.711Z,63
2023-05-04T12:09:32.931Z,63
2023-05-04T12:10:42.482Z,63
2023-05-04T12:11:46.485Z,63
2023-05-04T12:11:47.134Z,63
2023-05-04T12:12:54.146Z,63
2023-05-04T12:14:01.222Z,62
2023-05-04T12:15:08.058Z,63
2023-05-04T12:16:14.964Z,63
2023-05-04T12:17:22.115Z,63
2023-05-04T12:18:29.146Z,63
2023-05-04T12:19:35.723Z,63
2023-05-04T12:20:42.787Z,62
2023-05-04T12:21:49.979Z,62
2023-05-04T12:22:57.027Z,63
2023-05-04T12:25:10.812Z,63
2023-05-04T12:26:19.815Z,62
2023-05-04T12:27:25.111Z,62
2023-05-04T12:28:32.073Z,62
2023-05-04T12:29:39.263Z,62
2023-05-04T12:30:45.753Z,62
2023-05-04T12:31:52.829Z,62
2023-05-04T12:33:00.026Z,62
2023-05-04T12:34:06.546Z,62
2023-05-04T12:34:07.033Z,62
2023-05-04T12:35:14.155Z,61
2023-05-04T12:36:20.695Z,61
2023-05-04T12:37:28.091Z,62
2023-05-04T12:38:34.423Z,61
2023-05-04T12:38:34.955Z,61
2023-05-04T12:39:42.068Z,61
2023-05-04T12:40:49.207Z,61
2023-05-04T12:41:55.864Z,61
2023-05-04T12:43:02.340Z,62
2023-05-04T12:43:02.819Z,62
2023-05-04T12:44:10.011Z,61
2023-05-04T12:45:17.065Z,61
2023-05-04T12:46:24.236Z,61
2023-05-04T12:47:30.761Z,61
2023-05-04T12:48:37.873Z,61
2023-05-04T12:49:44.971Z,61
2023-05-04T12:50:52.109Z,61
2023-05-04T12:51:59.336Z,61
2023-05-04T12:53:05.789Z,61
2023-05-04T12:54:13.079Z,61
2023-05-04T12:55:19.958Z,61
2023-05-04T12:56:27.118Z,61
2023-05-04T12:57:33.643Z,61
2023-05-04T12:58:40.724Z,61
2023-05-04T12:59:48.014Z,61
2023-05-04T13:00:55.016Z,61
2023-05-04T13:02:02.209Z,61
2023-05-04T13:03:08.824Z,61
2023-05-04T13:04:16.096Z,61
2023-05-04T13:05:22.908Z,61
2023-05-04T13:05:22.912Z,61
2023-05-04T13:06:29.461Z,61
2023-05-04T13:07:37.108Z,61
2023-05-04T13:08:43.663Z,61
2023-05-04T13:09:50.912Z,61
2023-05-04T13:10:57.888Z,60
2023-05-04T13:12:05.139Z,60
2023-05-04T13:13:12.098Z,60
2023-05-04T13:14:19.374Z,60
2023-05-04T13:15:25.816Z,60
2023-05-04T13:16:32.986Z,60
2023-05-04T13:17:40.073Z,61
2023-05-04T13:18:47.123Z,60
2023-05-04T13:19:53.671Z,60
2023-05-04T13:21:00.825Z,60
2023-05-04T13:22:09.970Z,60
2023-05-04T13:23:14.486Z,60
2023-05-04T13:23:15.033Z,60
2023-05-04T13:24:22.085Z,60
2023-05-04T13:25:28.726Z,60
2023-05-04T13:26:35.840Z,59
2023-05-04T13:27:42.872Z,59
2023-05-04T13:28:50.026Z,59
2023-05-04T13:29:57.118Z,59
2023-05-04T13:31:03.728Z,58
2023-05-04T13:32:10.274Z,58
2023-05-04T13:32:10.780Z,58
2023-05-04T13:33:28.732Z,58
2023-05-04T13:34:25.042Z,58
2023-05-04T13:35:32.126Z,59
2023-05-04T13:36:38.725Z,59
2023-05-04T13:37:45.831Z,59
2023-05-04T13:38:52.409Z,59
2023-05-04T13:38:52.905Z,59
2023-05-04T13:39:59.702Z,59
2023-05-04T13:40:00.043Z,59
2023-05-04T13:41:06.669Z,59
2023-05-04T13:42:13.742Z,59
2023-05-04T13:43:20.797Z,59
2023-05-04T13:43:20.867Z,59
2023-05-04T13:44:27.939Z,59
2023-05-04T13:45:34.485Z,58
2023-05-04T13:45:35.053Z,58
2023-05-04T13:46:42.173Z,58
2023-05-04T13:47:48.794Z,58
2023-05-04T13:48:57.194Z,58
2023-05-04T13:50:02.404Z,58
2023-05-04T13:50:02.926Z,58
2023-05-04T13:51:10.064Z,58
2023-05-04T13:53:23.839Z,57
2023-05-04T13:54:30.815Z,57
2023-05-04T13:55:38.612Z,58
2023-05-04T13:56:45.062Z,58
2023-05-04T13:57:52.161Z,57
2023-05-04T13:58:58.766Z,57
2023-05-04T14:00:10.633Z,57
2023-05-04T14:01:12.993Z,57
2023-05-04T14:02:19.584Z,57
2023-05-04T14:02:20.109Z,57
2023-05-04T14:03:27.226Z,55
2023-05-04T14:04:33.714Z,55
2023-05-04T14:05:40.892Z,55
2023-05-04T14:06:47.446Z,55
2023-05-04T14:06:47.926Z,55
2023-05-04T14:07:54.497Z,56
2023-05-04T14:07:55.085Z,56
2023-05-04T14:09:01.667Z,57
2023-05-04T14:10:08.800Z,57
2023-05-04T14:11:16.236Z,57
2023-05-04T14:12:22.980Z,57
2023-05-04T14:15:43.729Z,56
2023-05-04T14:16:50.974Z,56
2023-05-04T14:21:18.785Z,57
2023-05-04T14:25:47.230Z,57
2023-05-04T14:26:53.729Z,56
2023-05-04T14:28:00.875Z,56
2023-05-04T14:30:14.772Z,56
2023-05-04T14:41:25.154Z,56
2023-05-04T14:51:27.500Z,56
2023-05-04T14:52:35.278Z,56
2023-05-04T14:55:55.908Z,56
2023-05-04T14:57:03.028Z,55
2023-05-04T14:58:10.158Z,55
2023-05-04T15:00:23.832Z,54
2023-05-04T15:01:30.971Z,54
2023-05-04T15:02:38.124Z,54
2023-05-04T15:03:44.770Z,54
2023-05-04T15:04:51.691Z,54
2023-05-04T15:05:58.842Z,54
2023-05-04T15:07:05.459Z,55
2023-05-04T15:08:13.042Z,55
2023-05-04T15:09:19.684Z,55
2023-05-04T15:11:33.846Z,55
2023-05-04T15:12:40.944Z,55
2023-05-04T15:13:47.544Z,55
2023-05-04T15:14:55.138Z,56
2023-05-04T15:16:04.380Z,56
2023-05-04T15:17:08.837Z,56
2023-05-04T15:22:43.836Z,56
2023-05-04T15:23:50.955Z,56
2023-05-04T15:24:58.073Z,56
2023-05-04T15:26:04.626Z,56
2023-05-04T15:27:11.723Z,57
2023-05-04T15:28:18.837Z,57
2023-05-04T15:29:25.989Z,57
2023-05-04T15:30:33.073Z,57
2023-05-04T15:32:46.780Z,56
2023-05-04T15:33:53.862Z,56
2023-05-04T15:35:05.117Z,57
2023-05-04T15:36:08.087Z,57
2023-05-04T15:37:14.676Z,56
2023-05-04T15:38:21.750Z,57
2023-05-04T15:39:28.890Z,57
2023-05-04T15:40:35.963Z,57
2023-05-04T16:12:59.125Z,58
2023-05-04T16:19:41.056Z,58
2023-05-04T16:20:47.624Z,58
2023-05-04T16:21:54.734Z,58
2023-05-04T16:24:08.414Z,58
2023-05-04T16:26:23.171Z,58
2023-05-04T16:27:29.846Z,59
2023-05-04T16:28:36.892Z,59
2023-05-04T16:29:43.411Z,59
2023-05-04T16:30:51.083Z,59
2023-05-04T16:31:57.644Z,59
2023-05-04T16:34:11.840Z,59
2023-05-04T17:38:57.732Z,59
2023-05-04T17:40:04.411Z,59
2023-05-04T17:41:12.074Z,59
2023-05-04T17:43:26.174Z,59
2023-05-04T17:49:01.141Z,59
2023-05-04T17:56:49.881Z,58
2023-05-04T17:57:56.970Z,59
2023-05-04T17:59:04.017Z,59
2023-05-04T18:00:11.148Z,59
2023-05-04T18:01:17.299Z,59
2023-05-04T18:02:24.931Z,59
2023-05-04T18:03:32.048Z,59
2023-05-04T18:04:39.081Z,59
2023-05-04T18:05:45.719Z,59
2023-05-04T18:06:52.739Z,59
2023-05-04T18:07:59.840Z,59
2023-05-04T18:09:06.989Z,59
2023-05-04T18:10:14.054Z,59
2023-05-04T18:12:27.848Z,59
2023-05-04T18:15:49.142Z,59
2023-05-04T18:20:16.474Z,59
2023-05-04T18:20:16.984Z,59
2023-05-04T18:23:37.839Z,59
2023-05-04T18:45:57.905Z,59
2023-05-04T18:56:00.224Z,59
2023-05-04T18:57:07.834Z,59
2023-05-04T19:02:42.952Z,59
2023-05-04T19:03:49.983Z,59
2023-05-04T19:04:57.062Z,60
2023-05-04T19:06:03.618Z,60
2023-05-04T19:07:10.733Z,60